createdAt,value
2023-10-23T00:02:24.296Z,2.90
2023-10-23T00:04:52.636Z,4.80
2023-10-23T00:07:21.070Z,2.80
2023-10-23T00:09:49.667Z,4.60
2023-10-23T00:12:18.042Z,4.30
2023-10-23T00:14:46.392Z,3.90
2023-10-23T00:17:14.811Z,3.80
2023-10-23T00:19:43.155Z,6.30
2023-10-23T00:22:11.434Z,3.40
2023-10-23T00:24:39.855Z,3.70
2023-10-23T00:27:08.377Z,2.90
2023-10-23T00:29:36.719Z,2.70
2023-10-23T00:32:06.707Z,3.10
2023-10-23T00:34:35.046Z,1.90
2023-10-23T00:37:03.401Z,2.70
2023-10-23T00:39:31.798Z,3.10
2023-10-23T00:42:00.287Z,3.60
2023-10-23T00:44:31.978Z,5.00
2023-10-23T00:47:01.123Z,2.50
2023-10-23T00:49:30.117Z,2.30
2023-10-23T00:51:59.071Z,2.90
2023-10-23T00:54:30.135Z,3.50
2023-10-23T00:56:59.010Z,3.80
2023-10-23T00:59:27.381Z,3.90
2023-10-23T01:01:56.064Z,2.70
2023-10-23T01:04:25.881Z,3.80
2023-10-23T01:06:54.344Z,3.90
2023-10-23T01:09:22.839Z,1.80
2023-10-23T01:11:52.490Z,3.20
2023-10-23T01:14:20.961Z,2.40
2023-10-23T01:16:49.306Z,3.80
2023-10-23T01:19:17.622Z,2.20
2023-10-23T01:21:46.084Z,2.50
2023-10-23T01:24:17.195Z,3.90
2023-10-23T01:26:45.551Z,3.50
2023-10-23T01:29:13.834Z,2.40
2023-10-23T01:31:42.258Z,2.30
2023-10-23T01:34:10.598Z,5.90
2023-10-23T01:36:39.402Z,2.20
2023-10-23T01:39:07.713Z,3.60
2023-10-23T01:41:36.025Z,2.30
2023-10-23T01:44:04.804Z,2.40
2023-10-23T01:46:33.205Z,3.20
2023-10-23T01:49:02.534Z,2.40
2023-10-23T01:51:30.848Z,1.70
2023-10-23T01:53:59.177Z,2.60
2023-10-23T01:56:28.172Z,2.60
2023-10-23T01:58:56.506Z,3.00
2023-10-23T02:01:26.029Z,2.40
2023-10-23T02:03:57.203Z,2.90
2023-10-23T02:06:25.993Z,2.20
2023-10-23T02:08:54.375Z,4.70
2023-10-23T02:11:22.673Z,4.00
2023-10-23T02:13:50.989Z,2.60
2023-10-23T02:16:19.383Z,1.70
2023-10-23T02:18:48.681Z,3.10
2023-10-23T02:21:17.266Z,1.70
2023-10-23T02:23:56.049Z,2.20
2023-10-23T02:26:26.099Z,4.50
2023-10-23T02:28:54.360Z,4.50
2023-10-23T02:31:24.012Z,2.40
2023-10-23T02:33:52.634Z,2.40
2023-10-23T02:36:21.187Z,1.80
2023-10-23T02:38:49.603Z,1.50
2023-10-23T02:41:18.687Z,4.00
2023-10-23T02:43:47.348Z,1.90
2023-10-23T02:46:15.764Z,2.00
2023-10-23T02:48:44.226Z,2.40
2023-10-23T02:51:12.676Z,3.70
2023-10-23T02:53:41.059Z,3.50
2023-10-23T02:56:15.861Z,1.40
2023-10-23T02:58:44.242Z,2.90
2023-10-23T03:01:25.122Z,1.90
2023-10-23T03:03:53.760Z,3.50
2023-10-23T03:06:23.114Z,1.50
2023-10-23T03:08:51.459Z,2.40
2023-10-23T03:11:19.788Z,3.00
2023-10-23T03:13:48.266Z,1.30
2023-10-23T03:16:16.911Z,3.00
2023-10-23T03:18:45.698Z,8.90
2023-10-23T03:21:14.215Z,2.30
2023-10-23T03:23:42.748Z,1.80
2023-10-23T03:26:11.145Z,2.80
2023-10-23T03:28:39.491Z,1.30
2023-10-23T03:31:08.112Z,2.60
2023-10-23T03:33:36.512Z,2.10
2023-10-23T03:36:05.038Z,1.50
2023-10-23T03:38:33.454Z,2.70
2023-10-23T03:41:01.965Z,3.60
2023-10-23T03:43:30.465Z,3.70
2023-10-23T03:46:04.090Z,3.30
2023-10-23T03:48:36.793Z,2.60
2023-10-23T03:51:05.754Z,2.70
2023-10-23T03:53:34.697Z,1.90
2023-10-23T03:56:06.965Z,2.00
2023-10-23T03:58:36.263Z,2.40
2023-10-23T04:01:04.679Z,1.70
2023-10-23T04:03:33.346Z,3.40
2023-10-23T04:06:04.467Z,1.90
2023-10-23T04:08:32.943Z,2.20
2023-10-23T04:11:01.434Z,2.30
2023-10-23T04:13:30.741Z,2.10
2023-10-23T04:16:00.285Z,3.20
2023-10-23T04:18:29.036Z,1.90
2023-10-23T04:21:08.640Z,3.10
2023-10-23T04:23:40.966Z,1.60
2023-10-23T04:26:09.753Z,4.90
2023-10-23T04:28:38.529Z,3.10
2023-10-23T04:31:06.940Z,2.80
2023-10-23T04:33:35.699Z,2.70
2023-10-23T04:36:04.224Z,2.40
2023-10-23T04:38:33.254Z,3.00
2023-10-23T04:41:01.564Z,2.40
2023-10-23T04:43:30.002Z,3.00
2023-10-23T04:45:58.959Z,4.40
2023-10-23T04:48:27.456Z,4.00
2023-10-23T04:51:01.080Z,2.60
2023-10-23T04:53:29.434Z,3.30
2023-10-23T04:55:59.657Z,3.20
2023-10-23T04:58:28.136Z,3.40
2023-10-23T05:00:57.307Z,6.50
2023-10-23T05:03:25.999Z,5.30
2023-10-23T05:05:54.555Z,4.70
2023-10-23T05:08:22.983Z,4.70
2023-10-23T05:10:51.396Z,4.30
2023-10-23T05:13:19.843Z,6.30
2023-10-23T05:15:48.244Z,6.60
2023-10-23T05:18:16.738Z,4.50
2023-10-23T05:20:45.150Z,6.20
2023-10-23T05:23:13.449Z,3.90
2023-10-23T05:25:41.787Z,4.10
2023-10-23T05:28:10.108Z,5.50
2023-10-23T05:30:38.416Z,4.40
2023-10-23T05:33:06.719Z,6.60
2023-10-23T05:35:35.074Z,4.40
2023-10-23T05:38:03.457Z,6.90
2023-10-23T05:40:31.866Z,5.30
2023-10-23T05:43:00.381Z,3.40
2023-10-23T05:45:29.015Z,6.20
2023-10-23T05:47:57.388Z,4.50
2023-10-23T05:50:26.141Z,4.00
2023-10-23T05:52:54.440Z,6.50
2023-10-23T05:55:34.640Z,5.20
2023-10-23T05:58:04.220Z,5.40
2023-10-23T06:00:32.622Z,7.60
2023-10-23T06:03:01.079Z,4.50
2023-10-23T06:05:29.503Z,5.50
2023-10-23T06:07:57.835Z,3.50
2023-10-23T06:10:27.195Z,5.40
2023-10-23T06:12:55.568Z,4.40
2023-10-23T06:15:24.032Z,4.50
2023-10-23T06:17:52.503Z,3.00
2023-10-23T06:20:20.840Z,3.40
2023-10-23T06:22:49.215Z,4.00
2023-10-23T06:25:18.194Z,4.40
2023-10-23T06:27:46.955Z,4.20
2023-10-23T06:30:15.294Z,2.80
2023-10-23T06:32:43.660Z,4.10
2023-10-23T06:35:12.033Z,4.30
2023-10-23T06:37:40.370Z,5.90
2023-10-23T06:40:09.573Z,6.30
2023-10-23T06:42:37.947Z,7.20
2023-10-23T06:45:08.005Z,7.30
2023-10-23T06:47:36.590Z,7.20
2023-10-23T06:50:06.524Z,6.60
2023-10-23T06:52:34.959Z,6.70
2023-10-23T06:55:05.008Z,8.40
2023-10-23T06:57:33.536Z,6.60
2023-10-23T07:00:01.966Z,8.80
2023-10-23T07:02:30.359Z,10.60
2023-10-23T07:04:58.677Z,7.20
2023-10-23T07:07:30.148Z,7.20
2023-10-23T07:10:02.135Z,8.90
2023-10-23T07:12:30.499Z,8.70
2023-10-23T07:14:58.919Z,7.90
2023-10-23T07:17:27.542Z,10.70
2023-10-23T07:19:55.931Z,7.60
2023-10-23T07:22:24.374Z,11.60
2023-10-23T07:24:55.995Z,6.10
2023-10-23T07:27:24.419Z,10.60
2023-10-23T07:29:53.128Z,6.00
2023-10-23T07:32:21.446Z,6.30
2023-10-23T07:34:49.821Z,8.30
2023-10-23T07:37:21.137Z,8.70
2023-10-23T07:39:49.873Z,6.80
2023-10-23T07:42:18.302Z,10.60
2023-10-23T07:44:46.972Z,7.70
2023-10-23T07:47:15.371Z,5.00
2023-10-23T07:49:45.099Z,5.70
2023-10-23T07:52:13.490Z,3.50
2023-10-23T07:54:41.914Z,3.80
2023-10-23T07:57:10.556Z,3.70
2023-10-23T07:59:39.114Z,3.40
2023-10-23T08:02:07.845Z,3.60
2023-10-23T08:04:36.553Z,4.60
2023-10-23T08:07:05.238Z,4.90
2023-10-23T08:09:33.541Z,8.60
2023-10-23T08:12:01.877Z,4.50
2023-10-23T08:14:30.326Z,3.70
2023-10-23T08:16:58.782Z,5.20
2023-10-23T08:19:27.473Z,4.70
2023-10-23T08:21:55.878Z,4.80
2023-10-23T08:24:24.357Z,4.10
2023-10-23T08:26:52.757Z,4.40
2023-10-23T08:29:21.139Z,6.60
2023-10-23T08:31:49.694Z,7.00
2023-10-23T08:34:22.784Z,5.50
2023-10-23T08:36:51.505Z,3.60
2023-10-23T08:39:21.004Z,5.30
2023-10-23T08:41:52.603Z,3.70
2023-10-23T08:44:22.192Z,5.70
2023-10-23T08:46:51.170Z,3.50
2023-10-23T08:49:19.731Z,3.20
2023-10-23T08:51:53.417Z,3.20
2023-10-23T08:54:22.130Z,8.20
2023-10-23T08:57:03.879Z,6.10
2023-10-23T08:59:32.956Z,12.10
2023-10-23T09:02:02.222Z,4.50
2023-10-23T09:04:31.283Z,5.20
2023-10-23T09:07:01.757Z,4.30
2023-10-23T09:09:32.043Z,6.20
2023-10-23T09:12:00.595Z,6.10
2023-10-23T09:14:32.464Z,6.50
2023-10-23T09:17:01.465Z,5.20
2023-10-23T09:19:38.450Z,4.10
2023-10-23T09:22:09.128Z,6.40
2023-10-23T09:24:38.657Z,4.40
2023-10-23T09:27:07.697Z,6.30
2023-10-23T09:29:36.497Z,5.60
2023-10-23T09:32:06.728Z,4.40
2023-10-23T09:34:41.771Z,3.50
2023-10-23T09:37:10.940Z,3.30
2023-10-23T09:39:41.461Z,4.00
2023-10-23T09:42:10.334Z,5.80
2023-10-23T09:44:42.013Z,4.90
2023-10-23T09:47:12.764Z,5.00
2023-10-23T09:49:41.881Z,3.50
2023-10-23T09:52:12.631Z,5.50
2023-10-23T09:54:46.844Z,2.70
2023-10-23T09:57:18.507Z,4.60
2023-10-23T10:00:00.517Z,3.40
2023-10-23T10:02:32.248Z,2.80
2023-10-23T10:05:07.798Z,3.30
2023-10-23T10:07:36.012Z,3.70
2023-10-23T10:10:06.844Z,4.40
2023-10-23T10:12:39.201Z,4.40
2023-10-23T10:15:13.607Z,3.30
2023-10-23T10:17:45.533Z,2.30
2023-10-23T10:20:14.403Z,2.70
2023-10-23T10:22:44.461Z,4.10
2023-10-23T10:25:13.748Z,2.90
2023-10-23T10:27:42.371Z,4.70
2023-10-23T10:30:47.321Z,3.00
2023-10-23T10:34:24.350Z,5.80
2023-10-23T10:36:45.345Z,2.70
2023-10-23T10:39:08.078Z,3.00
2023-10-23T10:41:37.101Z,2.90
2023-10-23T10:44:11.704Z,5.60
2023-10-23T10:46:43.653Z,2.30
2023-10-23T10:49:16.933Z,2.70
2023-10-23T10:51:45.983Z,4.10
2023-10-23T10:54:14.748Z,4.10
2023-10-23T10:56:45.490Z,4.10
2023-10-23T10:59:13.862Z,3.50
2023-10-23T11:01:42.409Z,5.10
2023-10-23T11:04:11.486Z,3.60
2023-10-23T11:06:39.918Z,3.60
2023-10-23T11:09:09.963Z,2.50
2023-10-23T11:11:38.515Z,2.90
2023-10-23T11:14:06.842Z,1.80
2023-10-23T11:16:35.475Z,3.50
2023-10-23T11:19:04.919Z,3.80
2023-10-23T11:21:34.377Z,4.20
2023-10-23T11:24:04.353Z,8.60
2023-10-23T11:26:34.845Z,9.00
2023-10-23T11:29:04.926Z,3.90
2023-10-23T11:31:33.435Z,3.90
2023-10-23T11:34:10.977Z,4.40
2023-10-23T11:36:39.496Z,5.30
2023-10-23T11:39:14.338Z,3.10
2023-10-23T11:41:42.642Z,5.80
2023-10-23T11:44:11.066Z,3.00
2023-10-23T11:46:40.851Z,3.30
2023-10-23T11:49:09.687Z,3.70
2023-10-23T11:51:38.408Z,3.60
2023-10-23T11:54:06.854Z,2.20
2023-10-23T11:56:36.689Z,5.70
2023-10-23T11:59:06.106Z,2.40
2023-10-23T12:01:34.621Z,3.30
2023-10-23T12:04:03.273Z,2.00
2023-10-23T12:06:31.696Z,3.00
2023-10-23T12:09:00.114Z,3.50
2023-10-23T12:11:30.137Z,3.00
2023-10-23T12:14:00.974Z,2.30
2023-10-23T12:16:32.020Z,1.60
2023-10-23T12:19:01.528Z,4.40
2023-10-23T12:21:29.929Z,2.90
2023-10-23T12:23:58.361Z,2.50
2023-10-23T12:26:27.265Z,2.70
2023-10-23T12:28:55.698Z,1.60
2023-10-23T12:31:24.971Z,2.60
2023-10-23T12:33:54.085Z,2.60
2023-10-23T12:36:22.727Z,1.80
2023-10-23T12:38:51.214Z,2.50
2023-10-23T12:41:19.584Z,3.70
2023-10-23T12:43:49.112Z,1.80
2023-10-23T12:46:18.726Z,3.70
2023-10-23T12:48:47.311Z,2.80
2023-10-23T12:51:16.191Z,3.10
2023-10-23T12:53:44.592Z,6.00
2023-10-23T12:56:13.004Z,10.50
2023-10-23T12:58:42.644Z,5.50
2023-10-23T13:01:11.240Z,4.40
2023-10-23T13:03:39.829Z,2.50
2023-10-23T13:06:09.061Z,3.70
2023-10-23T13:08:37.487Z,2.30
2023-10-23T13:11:05.905Z,3.70
2023-10-23T13:13:34.447Z,2.80
2023-10-23T13:16:02.839Z,2.70
2023-10-23T13:18:31.444Z,3.40
2023-10-23T13:21:33.690Z,3.30
2023-10-23T13:23:50.184Z,5.60
2023-10-23T13:26:18.599Z,4.10
2023-10-23T13:28:48.813Z,5.80
2023-10-23T13:31:18.055Z,4.30
2023-10-23T13:33:47.248Z,2.20
2023-10-23T13:36:15.600Z,5.80
2023-10-23T13:38:43.889Z,3.30
2023-10-23T13:41:12.221Z,8.10
2023-10-23T13:43:40.748Z,6.00
2023-10-23T13:46:09.275Z,5.90
2023-10-23T13:48:37.654Z,5.60
2023-10-23T13:51:06.053Z,4.40
2023-10-23T13:53:34.717Z,5.50
2023-10-23T13:56:03.118Z,4.60
2023-10-23T13:58:32.225Z,5.70
2023-10-23T14:01:01.405Z,8.10
2023-10-23T14:03:30.137Z,6.60
2023-10-23T14:05:59.511Z,4.80
2023-10-23T14:08:35.583Z,4.70
2023-10-23T14:11:57.525Z,5.10
2023-10-23T14:14:04.777Z,7.70
2023-10-23T14:16:33.212Z,3.90
2023-10-23T14:19:01.658Z,6.00
2023-10-23T14:21:30.111Z,6.10
2023-10-23T14:23:58.454Z,9.40
2023-10-23T14:26:27.348Z,5.50
2023-10-23T14:28:57.296Z,7.80
2023-10-23T14:31:25.760Z,5.40
2023-10-23T14:33:55.254Z,4.20
2023-10-23T14:36:25.359Z,5.50
2023-10-23T14:38:53.728Z,5.40
2023-10-23T14:41:23.649Z,6.80
2023-10-23T14:43:52.777Z,11.90
2023-10-23T14:46:21.179Z,6.90
2023-10-23T14:48:49.620Z,5.80
2023-10-23T14:51:18.021Z,7.30
2023-10-23T14:53:46.469Z,8.60
2023-10-23T14:56:14.986Z,7.60
2023-10-23T14:58:43.341Z,7.80
2023-10-23T15:01:13.177Z,8.20
2023-10-23T15:03:43.445Z,6.00
2023-10-23T15:06:13.408Z,4.40
2023-10-23T15:08:43.917Z,5.20
2023-10-23T15:11:15.035Z,4.60
2023-10-23T15:13:43.492Z,6.40
2023-10-23T15:16:11.923Z,6.90
2023-10-23T15:18:40.284Z,7.30
2023-10-23T15:21:08.866Z,4.10
2023-10-23T15:23:37.224Z,5.30
2023-10-23T15:26:06.023Z,6.70
2023-10-23T15:28:36.817Z,5.70
2023-10-23T15:31:07.061Z,6.60
2023-10-23T15:33:37.377Z,4.80
2023-10-23T15:36:07.146Z,7.00
2023-10-23T15:38:36.737Z,7.60
2023-10-23T15:41:12.953Z,4.70
2023-10-23T15:43:43.679Z,7.80
2023-10-23T15:46:14.494Z,7.40
2023-10-23T15:48:43.889Z,6.80
2023-10-23T15:51:13.019Z,8.50
2023-10-23T15:53:42.147Z,6.20
2023-10-23T15:56:11.349Z,4.70
2023-10-23T15:58:39.726Z,4.90
2023-10-23T16:01:10.267Z,6.50
2023-10-23T16:03:38.811Z,9.60
2023-10-23T16:06:11.090Z,4.90
2023-10-23T16:08:40.335Z,4.20
2023-10-23T16:11:09.168Z,6.60
2023-10-23T16:13:38.550Z,4.70
2023-10-23T16:16:16.566Z,4.70
2023-10-23T16:18:47.397Z,4.70
2023-10-23T16:21:17.029Z,4.20
2023-10-23T16:23:45.515Z,5.10
2023-10-23T16:26:13.977Z,7.90
2023-10-23T16:28:42.345Z,5.70
2023-10-23T16:31:17.147Z,10.50
2023-10-23T16:33:45.807Z,5.90
2023-10-23T16:36:14.205Z,6.70
2023-10-23T16:38:42.520Z,7.10
2023-10-23T16:41:10.860Z,8.70
2023-10-23T16:43:41.674Z,5.30
2023-10-23T16:46:13.156Z,4.90
2023-10-23T16:48:42.937Z,5.10
2023-10-23T16:51:11.622Z,7.30
2023-10-23T16:53:40.133Z,9.70
2023-10-23T16:56:08.535Z,11.40
2023-10-23T16:58:37.170Z,17.40
2023-10-23T17:01:07.815Z,10.70
2023-10-23T17:03:39.042Z,13.80
2023-10-23T17:06:08.530Z,9.00
2023-10-23T17:08:37.358Z,10.60
2023-10-23T17:11:10.585Z,8.50
2023-10-23T17:13:39.014Z,8.30
2023-10-23T17:16:07.877Z,8.70
2023-10-23T17:18:36.435Z,12.50
2023-10-23T17:21:05.263Z,11.20
2023-10-23T17:23:35.177Z,10.50
2023-10-23T17:26:04.091Z,12.00
2023-10-23T17:28:32.567Z,14.80
2023-10-23T17:31:01.085Z,9.90
2023-10-23T17:33:32.216Z,14.30
2023-10-23T17:36:01.457Z,11.10
2023-10-23T17:38:29.894Z,8.50
2023-10-23T17:40:58.261Z,8.20
2023-10-23T17:43:26.687Z,7.60
2023-10-23T17:45:55.386Z,8.90
2023-10-23T17:48:23.911Z,8.60
2023-10-23T17:50:53.108Z,8.40
2023-10-23T17:53:21.420Z,12.50
2023-10-23T17:55:49.727Z,10.40
2023-10-23T17:58:18.133Z,9.80
2023-10-23T18:00:46.485Z,9.90
2023-10-23T18:03:16.710Z,7.50
2023-10-23T18:05:47.471Z,6.70
2023-10-23T18:08:15.896Z,7.10
2023-10-23T18:10:44.235Z,7.60
2023-10-23T18:13:12.629Z,8.20
2023-10-23T18:15:40.983Z,8.10
2023-10-23T18:18:09.382Z,9.80
2023-10-23T18:20:37.644Z,9.70
2023-10-23T18:23:05.940Z,9.40
2023-10-23T18:25:34.462Z,9.50
2023-10-23T18:28:03.521Z,7.70
2023-10-23T18:30:33.610Z,8.70
2023-10-23T18:33:01.981Z,9.60
2023-10-23T18:35:30.489Z,8.00
2023-10-23T18:37:58.993Z,7.30
2023-10-23T18:40:27.798Z,6.20
2023-10-23T18:43:01.636Z,8.00
2023-10-23T18:45:30.010Z,9.20
2023-10-23T18:47:58.678Z,7.40
2023-10-23T18:50:27.085Z,5.80
2023-10-23T18:52:56.039Z,7.10
2023-10-23T18:55:25.662Z,7.50
2023-10-23T18:57:54.035Z,8.80
2023-10-23T19:00:22.611Z,6.10
2023-10-23T19:02:52.692Z,5.40
2023-10-23T19:05:21.254Z,7.40
2023-10-23T19:07:50.524Z,7.10
2023-10-23T19:10:19.085Z,6.20
2023-10-23T19:12:47.504Z,8.50
2023-10-23T19:15:15.951Z,7.20
2023-10-23T19:17:44.459Z,7.80
2023-10-23T19:20:14.267Z,6.20
2023-10-23T19:22:43.181Z,6.20
2023-10-23T19:25:11.681Z,6.50
2023-10-23T19:27:40.670Z,5.20
2023-10-23T19:30:13.561Z,5.70
2023-10-23T19:32:42.870Z,6.90
2023-10-23T19:35:15.851Z,5.80
2023-10-23T19:37:44.557Z,7.10
2023-10-23T19:40:13.917Z,6.20
2023-10-23T19:42:43.307Z,6.00
2023-10-23T19:45:12.369Z,4.90
2023-10-23T19:47:41.026Z,7.20
2023-10-23T19:50:10.493Z,6.80
2023-10-23T19:52:39.492Z,7.60
2023-10-23T19:55:44.279Z,8.30
2023-10-23T19:57:57.959Z,5.40
2023-10-23T20:00:26.319Z,6.70
2023-10-23T20:02:55.944Z,9.30
2023-10-23T20:05:28.482Z,6.20
2023-10-23T20:08:01.082Z,7.50
2023-10-23T20:10:30.439Z,9.00
2023-10-23T20:13:00.316Z,4.80
2023-10-23T20:15:30.608Z,6.00
2023-10-23T20:17:59.311Z,4.90
2023-10-23T20:20:27.789Z,5.70
2023-10-23T20:22:56.431Z,6.30
2023-10-23T20:25:26.025Z,4.70
2023-10-23T20:27:54.563Z,4.40
2023-10-23T20:30:23.564Z,8.00
2023-10-23T20:32:52.023Z,7.90
2023-10-23T20:35:20.527Z,6.50
2023-10-23T20:37:50.959Z,5.60
2023-10-23T20:40:19.356Z,5.90
2023-10-23T20:42:47.774Z,7.60
2023-10-23T20:45:16.133Z,5.70
2023-10-23T20:47:44.625Z,7.40
2023-10-23T20:50:13.019Z,8.30
2023-10-23T20:52:41.449Z,6.60
2023-10-23T20:55:09.899Z,6.00
2023-10-23T20:57:38.278Z,5.60
2023-10-23T21:00:07.732Z,5.30
2023-10-23T21:02:37.290Z,6.70
2023-10-23T21:05:06.832Z,6.20
2023-10-23T21:07:36.019Z,5.50
2023-10-23T21:10:06.028Z,5.30
2023-10-23T21:12:34.389Z,5.30
2023-10-23T21:15:02.758Z,5.30
2023-10-23T21:17:31.304Z,8.10
2023-10-23T21:19:59.814Z,4.50
2023-10-23T21:22:28.310Z,6.20
2023-10-23T21:24:56.643Z,6.60
2023-10-23T21:27:25.223Z,4.10
2023-10-23T21:29:53.781Z,6.40
2023-10-23T21:32:22.147Z,4.70
2023-10-23T21:34:51.080Z,7.60
2023-10-23T21:37:19.454Z,6.40
2023-10-23T21:39:47.826Z,5.40
2023-10-23T21:42:16.182Z,4.40
2023-10-23T21:44:45.107Z,5.60
2023-10-23T21:47:14.266Z,5.40
2023-10-23T21:49:42.857Z,7.90
2023-10-23T21:52:12.816Z,4.00
2023-10-23T21:54:41.601Z,5.30
2023-10-23T21:57:21.161Z,3.70
2023-10-23T21:59:51.014Z,5.70
2023-10-23T22:02:19.795Z,4.70
2023-10-23T22:04:49.025Z,4.10
2023-10-23T22:07:17.631Z,5.10
2023-10-23T22:09:46.321Z,5.10
2023-10-23T22:12:15.030Z,5.30
2023-10-23T22:14:43.585Z,6.30
2023-10-23T22:17:12.056Z,5.40
2023-10-23T22:19:40.580Z,4.80
2023-10-23T22:22:10.252Z,7.20
2023-10-23T22:24:38.806Z,6.40
2023-10-23T22:27:07.313Z,6.10
2023-10-23T22:29:35.623Z,4.30
2023-10-23T22:32:05.312Z,4.10
2023-10-23T22:34:33.814Z,5.50
2023-10-23T22:37:55.765Z,4.20
2023-10-23T22:39:50.462Z,5.50
2023-10-23T22:42:18.746Z,3.60
2023-10-23T22:44:47.135Z,5.60
2023-10-23T22:47:16.004Z,6.40
2023-10-23T22:49:44.802Z,4.50
2023-10-23T22:52:13.501Z,4.50
2023-10-23T22:54:42.788Z,3.40
2023-10-23T22:57:13.469Z,5.30
2023-10-23T22:59:42.097Z,3.10
2023-10-23T23:02:10.830Z,3.80
2023-10-23T23:04:39.715Z,4.90
2023-10-23T23:07:11.688Z,4.70
2023-10-23T23:09:41.326Z,3.70
2023-10-23T23:12:10.589Z,4.70
2023-10-23T23:14:39.236Z,5.80
2023-10-23T23:17:10.618Z,4.20
2023-10-23T23:19:45.198Z,4.40
2023-10-23T23:22:13.890Z,6.10
2023-10-23T23:24:42.431Z,4.00
2023-10-23T23:27:11.078Z,3.40
2023-10-23T23:29:39.478Z,5.40
2023-10-23T23:32:07.912Z,4.40
2023-10-23T23:34:36.396Z,7.90
2023-10-23T23:37:04.678Z,5.10
2023-10-23T23:39:33.176Z,4.30
2023-10-23T23:42:01.832Z,5.00
2023-10-23T23:44:30.249Z,5.40
2023-10-23T23:46:58.644Z,3.40
2023-10-23T23:49:28.670Z,3.10
2023-10-23T23:51:57.110Z,3.60
2023-10-23T23:54:25.457Z,5.50
2023-10-23T23:56:53.806Z,4.30
2023-10-23T23:59:22.141Z,3.90
